Time;durP1;ratioP1;P1;durP2;ratioP2;P2;SDS_P1;SDS_P2;PMS_P1;PMS_P2;Temp;Humidity;BMP_temperature;BMP_pressure;BME280_temperature;BME280_humidity;BME280_pressure;Samples;Min_cycle;Max_cycle;Signal;HPM_P1;HPM_P2
2023/01/03 00:01:13;;;;;;;;;;;20.90;48.40;;;;;;5056203;28;20020;-68
2023/01/03 00:03:40;;;;;;;;;;;20.90;48.40;;;;;;5056205;28;20408;-68
2023/01/03 00:06:14;;;;;;;;;;;20.90;48.40;;;;;;5056235;28;20337;-68
2023/01/03 00:08:41;;;;;;;;;;;20.90;48.40;;;;;;5057941;28;19936;-67
2023/01/03 00:11:12;;;;;;;;;;;20.90;48.50;;;;;;5076077;28;20003;-67
2023/01/03 00:13:39;;;;;;;;;;;20.90;48.40;;;;;;5076171;28;19924;-68
2023/01/03 00:16:13;;;;;;;;;;;20.90;48.40;;;;;;5075981;28;19927;-67
2023/01/03 00:18:41;;;;;;;;;;;20.90;48.40;;;;;;5076017;28;19920;-67
2023/01/03 00:21:07;;;;;;;;;;;20.90;48.40;;;;;;5076022;28;20283;-67
2023/01/03 00:23:34;;;;;;;;;;;20.90;48.40;;;;;;5076018;28;20368;-68
2023/01/03 00:26:09;;;;;;;;;;;20.90;48.40;;;;;;5075802;28;19920;-67
2023/01/03 00:28:36;;;;;;;;;;;20.90;48.40;;;;;;5075852;28;19927;-68
2023/01/03 00:31:07;;;;;;;;;;;20.80;48.40;;;;;;5075717;28;19927;-67
2023/01/03 00:33:35;;;;;;;;;;;20.80;48.40;;;;;;5075690;28;19926;-68
2023/01/03 00:36:06;;;;;;;;;;;20.80;48.40;;;;;;5075656;28;19920;-67
2023/01/03 00:38:34;;;;;;;;;;;20.80;48.30;;;;;;5075969;28;19920;-69
2023/01/03 00:41:08;;;;;;;;;;;20.80;48.30;;;;;;5075583;28;20418;-68
2023/01/03 00:43:36;;;;;;;;;;;20.80;48.30;;;;;;5075677;28;20356;-68
2023/01/03 00:46:03;;;;;;;;;;;20.80;48.30;;;;;;5075368;28;19920;-67
2023/01/03 00:48:31;;;;;;;;;;;20.80;48.30;;;;;;5075697;28;19927;-68
2023/01/03 00:51:03;;;;;;;;;;;20.80;48.30;;;;;;5058303;28;19964;-67
2023/01/03 00:53:30;;;;;;;;;;;20.80;48.40;;;;;;5075577;28;20319;-68
2023/01/03 00:56:02;;;;;;;;;;;20.80;48.30;;;;;;5075249;28;20015;-67
2023/01/03 00:58:29;;;;;;;;;;;20.80;48.30;;;;;;5075241;28;20019;-67
2023/01/03 01:00:56;;;;;;;;;;;20.80;48.30;;;;;;5075183;28;19971;-68
2023/01/03 01:03:25;;;;;;;;;;;20.80;48.30;;;;;;5075157;28;20395;-67
2023/01/03 01:05:52;;;;;;;;;;;20.80;48.30;;;;;;5075041;28;20376;-67
2023/01/03 01:08:19;;;;;;;;;;;20.80;48.30;;;;;;5075261;28;19928;-67
2023/01/03 01:11:00;;;;;;;;;;;20.80;48.40;;;;;;5075004;28;19927;-67
2023/01/03 01:13:28;;;;;;;;;;;20.80;48.30;;;;;;5075061;28;20401;-67
2023/01/03 01:15:59;;;;;;;;;;;20.80;48.30;;;;;;5075035;28;19921;-68
2023/01/03 01:18:26;;;;;;;;;;;20.80;48.30;;;;;;5074898;28;19972;-68
2023/01/03 01:20:53;;;;;;;;;;;20.80;48.30;;;;;;5074801;28;20010;-68
2023/01/03 01:23:20;;;;;;;;;;;20.80;48.30;;;;;;5075098;28;20292;-67
2023/01/03 01:25:47;;;;;;;;;;;20.80;48.30;;;;;;5074715;28;19920;-68
2023/01/03 01:28:14;;;;;;;;;;;20.80;48.30;;;;;;5075153;28;19920;-68
2023/01/03 01:30:40;;;;;;;;;;;20.80;48.30;;;;;;5074906;28;19920;-68
2023/01/03 01:33:07;;;;;;;;;;;20.80;48.30;;;;;;5074072;28;19955;-68
2023/01/03 01:35:34;;;;;;;;;;;20.80;48.30;;;;;;5074286;28;19920;-67
2023/01/03 01:38:01;;;;;;;;;;;20.80;48.30;;;;;;5074756;28;20363;-67
2023/01/03 01:40:30;;;;;;;;;;;20.80;48.30;;;;;;5074385;28;19921;-68
2023/01/03 01:45:46;;;;;;;;;;;20.70;48.20;;;;;;5074297;28;20430;-68
2023/01/03 01:48:15;;;;;;;;;;;20.80;48.30;;;;;;5074575;28;19920;-68
2023/01/03 01:50:49;;;;;;;;;;;20.70;48.30;;;;;;5074440;28;19942;-67
2023/01/03 01:53:18;;;;;;;;;;;20.80;48.30;;;;;;5074222;28;19927;-68
2023/01/03 01:55:50;;;;;;;;;;;20.70;48.20;;;;;;5073962;28;19920;-70
2023/01/03 01:58:17;;;;;;;;;;;20.70;48.20;;;;;;5074428;28;20352;-68
2023/01/03 02:00:44;;;;;;;;;;;20.70;48.20;;;;;;5074274;28;20356;-67
2023/01/03 02:03:11;;;;;;;;;;;20.70;48.20;;;;;;5074048;28;20375;-68
2023/01/03 02:05:41;;;;;;;;;;;20.70;48.20;;;;;;5073847;28;19966;-68
2023/01/03 02:08:08;;;;;;;;;;;20.70;48.20;;;;;;5073841;28;19964;-68
2023/01/03 02:10:55;;;;;;;;;;;20.70;48.20;;;;;;5073936;28;19920;-68
2023/01/03 02:13:30;;;;;;;;;;;20.70;48.20;;;;;;5074152;28;19928;-68
2023/01/03 02:16:06;;;;;;;;;;;20.70;48.20;;;;;;5073641;28;19920;-68
2023/01/03 02:18:45;;;;;;;;;;;20.70;48.20;;;;;;5074157;28;19920;-67
2023/01/03 02:21:32;;;;;;;;;;;20.70;48.30;;;;;;5074055;28;19920;-67
2023/01/03 02:24:19;;;;;;;;;;;20.70;48.20;;;;;;5074124;28;19921;-67
2023/01/03 02:27:05;;;;;;;;;;;20.70;48.20;;;;;;5073965;28;19920;-67
2023/01/03 02:29:45;;;;;;;;;;;20.70;48.20;;;;;;5073889;28;19946;-67
2023/01/03 02:32:18;;;;;;;;;;;20.70;48.30;;;;;;5074023;28;20003;-67
2023/01/03 02:34:52;;;;;;;;;;;20.70;48.20;;;;;;5072953;28;20007;-67
2023/01/03 02:37:29;;;;;;;;;;;20.70;48.20;;;;;;5073436;28;20356;-67
2023/01/03 02:40:09;;;;;;;;;;;20.70;48.20;;;;;;5073845;28;19920;-68
2023/01/03 02:42:56;;;;;;;;;;;20.60;48.10;;;;;;5073969;28;19951;-67
2023/01/03 02:45:34;;;;;;;;;;;20.60;48.10;;;;;;5072417;28;19960;-68
2023/01/03 02:48:08;;;;;;;;;;;20.60;48.10;;;;;;5073798;28;20015;-68
2023/01/03 02:50:39;;;;;;;;;;;20.60;48.10;;;;;;5073289;28;20014;-67
2023/01/03 02:53:08;;;;;;;;;;;20.60;48.10;;;;;;5073457;28;19927;-68
2023/01/03 02:55:36;;;;;;;;;;;20.60;48.10;;;;;;5073230;28;20014;-67
2023/01/03 02:58:06;;;;;;;;;;;20.60;48.10;;;;;;5073507;28;20043;-68
2023/01/03 03:00:37;;;;;;;;;;;20.60;48.10;;;;;;5073639;28;20386;-67
2023/01/03 03:03:05;;;;;;;;;;;20.60;48.10;;;;;;5073405;28;19921;-68
2023/01/03 03:05:38;;;;;;;;;;;20.60;48.10;;;;;;5073175;28;20023;-67
2023/01/03 03:08:06;;;;;;;;;;;20.60;48.10;;;;;;5073470;28;20010;-68
2023/01/03 03:13:26;;;;;;;;;;;20.60;48.10;;;;;;5073494;28;19920;-67
2023/01/03 03:15:56;;;;;;;;;;;20.60;48.10;;;;;;5073157;28;19921;-67
2023/01/03 03:18:28;;;;;;;;;;;20.60;48.10;;;;;;5073229;28;20362;-67
2023/01/03 03:26:38;;;;;;;;;;;20.60;48.10;;;;;;5073080;28;20483;-68
2023/01/03 03:29:10;;;;;;;;;;;20.50;48.00;;;;;;5082173;28;19920;-68
2023/01/03 03:31:39;;;;;;;;;;;20.60;48.10;;;;;;5073310;28;19921;-67
2023/01/03 03:34:09;;;;;;;;;;;20.50;48.10;;;;;;5089997;28;19966;-68
2023/01/03 03:36:46;;;;;;;;;;;20.50;48.00;;;;;;5075128;28;19934;-67
2023/01/03 03:45:17;;;;;;;;;;;20.50;48.00;;;;;;5072803;28;20380;-68
2023/01/03 03:47:52;;;;;;;;;;;20.50;48.00;;;;;;5072981;28;19921;-68
2023/01/03 03:50:33;;;;;;;;;;;20.50;48.00;;;;;;5073050;28;19927;-68
2023/01/03 03:53:03;;;;;;;;;;;20.50;48.00;;;;;;5072916;28;20363;-67
2023/01/03 03:55:40;;;;;;;;;;;20.50;48.00;;;;;;5073079;28;19921;-68
2023/01/03 03:58:10;;;;;;;;;;;20.50;48.00;;;;;;5076447;28;20383;-68
2023/01/03 04:00:38;;;;;;;;;;;20.50;48.00;;;;;;5089106;28;20309;-67
2023/01/03 04:03:07;;;;;;;;;;;20.50;47.90;;;;;;5096156;28;19920;-69
2023/01/03 04:05:36;;;;;;;;;;;20.50;47.90;;;;;;5077314;28;19926;-68
2023/01/03 04:08:03;;;;;;;;;;;20.50;47.90;;;;;;5080596;28;19924;-67
2023/01/03 04:10:30;;;;;;;;;;;20.50;47.90;;;;;;5087362;28;19920;-68
2023/01/03 04:13:03;;;;;;;;;;;20.50;47.90;;;;;;5094031;28;19949;-67
2023/01/03 04:15:31;;;;;;;;;;;20.50;47.90;;;;;;5095981;28;19920;-67
2023/01/03 04:18:00;;;;;;;;;;;20.50;47.90;;;;;;5095057;28;19963;-67
2023/01/03 04:20:28;;;;;;;;;;;20.50;47.90;;;;;;5071020;28;20342;-67
2023/01/03 04:22:55;;;;;;;;;;;20.50;47.90;;;;;;5073172;28;19967;-67
2023/01/03 04:25:22;;;;;;;;;;;20.40;47.80;;;;;;5065839;28;19924;-67
2023/01/03 04:27:49;;;;;;;;;;;20.40;47.80;;;;;;5081341;28;19927;-67
2023/01/03 04:30:16;;;;;;;;;;;20.50;47.90;;;;;;5085734;28;19920;-67
2023/01/03 04:32:43;;;;;;;;;;;20.40;47.80;;;;;;5085640;28;19920;-67
2023/01/03 04:35:10;;;;;;;;;;;20.40;47.80;;;;;;5082122;28;20376;-69
2023/01/03 04:37:37;;;;;;;;;;;20.40;47.80;;;;;;5077535;28;20015;-67
2023/01/03 04:40:04;;;;;;;;;;;20.40;47.80;;;;;;5075101;28;19967;-67
2023/01/03 04:45:18;;;;;;;;;;;20.40;47.80;;;;;;5082954;28;20287;-68
2023/01/03 04:47:45;;;;;;;;;;;20.40;47.80;;;;;;5090570;28;19924;-67
2023/01/03 04:50:12;;;;;;;;;;;20.40;47.80;;;;;;5084687;28;19930;-68
2023/01/03 04:52:39;;;;;;;;;;;20.40;47.80;;;;;;5075738;28;19920;-68
2023/01/03 04:55:06;;;;;;;;;;;20.40;47.70;;;;;;5074413;28;19927;-67
2023/01/03 04:57:34;;;;;;;;;;;20.40;47.80;;;;;;5075348;28;19920;-67
2023/01/03 05:00:02;;;;;;;;;;;20.40;47.80;;;;;;5084468;28;19960;-68
2023/01/03 05:02:29;;;;;;;;;;;20.30;47.70;;;;;;5076409;28;20011;-68
2023/01/03 05:04:56;;;;;;;;;;;20.30;47.70;;;;;;5075167;28;20442;-68
2023/01/03 05:07:25;;;;;;;;;;;20.30;47.70;;;;;;5073648;28;19921;-68
2023/01/03 05:09:52;;;;;;;;;;;20.40;47.70;;;;;;5074838;28;19931;-67
2023/01/03 05:12:19;;;;;;;;;;;20.30;47.60;;;;;;5075042;28;20372;-68
2023/01/03 05:14:46;;;;;;;;;;;20.30;47.60;;;;;;5074812;28;20001;-68
2023/01/03 05:17:13;;;;;;;;;;;20.30;47.60;;;;;;5079007;28;19920;-68
2023/01/03 05:28:01;;;;;;;;;;;20.30;47.60;;;;;;5075130;28;19927;-68
2023/01/03 05:30:28;;;;;;;;;;;20.30;47.60;;;;;;5073965;28;20372;-68
2023/01/03 05:32:56;;;;;;;;;;;20.30;47.60;;;;;;5075746;28;19920;-68
2023/01/03 05:35:23;;;;;;;;;;;20.30;47.50;;;;;;5085671;28;20434;-68
2023/01/03 05:37:53;;;;;;;;;;;20.30;47.50;;;;;;5087958;28;19924;-68
2023/01/03 05:40:20;;;;;;;;;;;20.30;47.20;;;;;;5075932;28;19942;-68
2023/01/03 05:42:47;;;;;;;;;;;20.30;47.10;;;;;;5079518;28;19920;-68
2023/01/03 05:45:15;;;;;;;;;;;20.30;47.00;;;;;;5074784;28;19920;-67
2023/01/03 05:47:42;;;;;;;;;;;20.20;47.00;;;;;;5083276;28;19924;-67
2023/01/03 05:50:09;;;;;;;;;;;20.30;47.10;;;;;;5094344;28;20292;-67
2023/01/03 05:52:36;;;;;;;;;;;20.20;47.10;;;;;;5087415;28;20014;-67
2023/01/03 05:55:03;;;;;;;;;;;20.20;47.00;;;;;;5087361;28;19982;-67
2023/01/03 05:57:30;;;;;;;;;;;20.30;47.00;;;;;;5078718;28;19920;-67
2023/01/03 06:00:02;;;;;;;;;;;20.30;46.90;;;;;;5092614;28;19962;-67
2023/01/03 06:02:29;;;;;;;;;;;20.20;46.80;;;;;;5093321;28;19935;-68
2023/01/03 06:04:56;;;;;;;;;;;20.30;46.70;;;;;;5077599;28;20011;-67
2023/01/03 06:07:23;;;;;;;;;;;20.30;46.60;;;;;;5083054;28;19920;-67
2023/01/03 06:09:50;;;;;;;;;;;20.30;46.60;;;;;;5079721;28;19934;-67
2023/01/03 06:12:17;;;;;;;;;;;20.30;46.50;;;;;;5053372;28;19921;-67
2023/01/03 06:14:44;;;;;;;;;;;20.40;46.40;;;;;;5060691;28;20006;-67
2023/01/03 06:19:58;;;;;;;;;;;20.40;46.20;;;;;;5060827;28;19927;-67
2023/01/03 06:22:25;;;;;;;;;;;20.50;46.30;;;;;;5050655;28;20337;-67
2023/01/03 06:24:52;;;;;;;;;;;20.50;46.10;;;;;;5079718;28;19920;-67
2023/01/03 06:27:18;;;;;;;;;;;20.60;46.10;;;;;;5051496;28;19935;-63
2023/01/03 06:29:45;;;;;;;;;;;20.60;46.00;;;;;;5061072;28;20280;-67
2023/01/03 06:32:15;;;;;;;;;;;20.60;46.00;;;;;;5067214;28;19920;-69
2023/01/03 06:34:42;;;;;;;;;;;20.70;45.90;;;;;;5077464;28;19920;-68
2023/01/03 06:37:09;;;;;;;;;;;20.70;45.80;;;;;;5063114;28;19954;-65
2023/01/03 06:39:36;;;;;;;;;;;20.70;45.80;;;;;;5058946;28;19951;-69
2023/01/03 06:53:12;;;;;;;;;;;20.90;45.30;;;;;;5060720;28;20321;-67
2023/01/03 06:55:41;;;;;;;;;;;20.90;45.20;;;;;;5060374;28;19924;-67
2023/01/03 06:58:08;;;;;;;;;;;21.00;45.20;;;;;;5061091;28;19924;-68
2023/01/03 07:00:36;;;;;;;;;;;21.00;45.10;;;;;;5058419;28;19928;-66
2023/01/03 07:03:03;;;;;;;;;;;21.00;45.00;;;;;;5062687;28;19929;-65
2023/01/03 07:05:37;;;;;;;;;;;21.00;45.10;;;;;;5058218;28;19924;-66
2023/01/03 07:08:04;;;;;;;;;;;21.10;44.90;;;;;;5041033;28;19931;-65
2023/01/03 07:10:30;;;;;;;;;;;21.10;44.80;;;;;;5054270;28;19982;-67
2023/01/03 07:15:48;;;;;;;;;;;21.20;44.90;;;;;;5058245;28;19925;-65
2023/01/03 07:18:15;;;;;;;;;;;21.30;44.80;;;;;;5059030;28;19924;-65
2023/01/03 07:20:43;;;;;;;;;;;21.30;44.90;;;;;;5059371;28;20147;-63
2023/01/03 07:23:10;;;;;;;;;;;21.30;44.80;;;;;;5056696;28;19925;-66
2023/01/03 07:25:41;;;;;;;;;;;21.30;44.70;;;;;;5059597;28;20069;-64
2023/01/03 07:28:09;;;;;;;;;;;21.40;44.80;;;;;;5054184;28;20003;-67
2023/01/03 07:30:42;;;;;;;;;;;21.40;44.60;;;;;;5054298;28;19929;-65
2023/01/03 07:33:10;;;;;;;;;;;21.40;44.70;;;;;;5061501;28;19929;-64
2023/01/03 07:35:37;;;;;;;;;;;21.50;44.60;;;;;;5062110;28;19928;-64
2023/01/03 07:38:04;;;;;;;;;;;21.50;44.50;;;;;;5065869;28;20018;-64
2023/01/03 07:40:31;;;;;;;;;;;21.50;44.50;;;;;;5063545;28;20021;-64
2023/01/03 07:45:45;;;;;;;;;;;21.60;44.50;;;;;;5063082;28;20334;-64
2023/01/03 07:48:13;;;;;;;;;;;21.60;44.30;;;;;;5060173;28;20384;-63
2023/01/03 07:50:41;;;;;;;;;;;21.70;44.20;;;;;;5059398;28;19929;-64
2023/01/03 07:53:08;;;;;;;;;;;21.70;44.10;;;;;;5059205;28;19962;-63
2023/01/03 07:55:36;;;;;;;;;;;21.70;43.90;;;;;;5058398;28;20053;-63
2023/01/03 07:58:03;;;;;;;;;;;21.80;43.90;;;;;;5062671;28;19978;-65
2023/01/03 08:00:30;;;;;;;;;;;21.80;43.80;;;;;;5057279;28;19942;-62
2023/01/03 08:02:57;;;;;;;;;;;21.90;43.70;;;;;;5058475;28;19977;-63
2023/01/03 08:05:24;;;;;;;;;;;21.90;43.70;;;;;;5059819;28;19928;-62
2023/01/03 08:07:52;;;;;;;;;;;22.00;43.70;;;;;;5058696;28;20094;-70
2023/01/03 08:13:17;;;;;;;;;;;22.00;43.70;;;;;;5063815;28;19950;-67
2023/01/03 08:15:53;;;;;;;;;;;22.10;43.80;;;;;;5059488;28;19928;-66
2023/01/03 08:18:22;;;;;;;;;;;22.10;43.80;;;;;;5059802;28;19924;-66
2023/01/03 08:20:52;;;;;;;;;;;22.10;43.80;;;;;;5058519;28;19928;-63
2023/01/03 08:23:20;;;;;;;;;;;22.20;43.80;;;;;;5062348;28;20381;-63
2023/01/03 08:25:47;;;;;;;;;;;22.20;43.60;;;;;;5061244;28;19928;-63
2023/01/03 08:28:14;;;;;;;;;;;22.20;43.40;;;;;;5058737;28;19925;-64
2023/01/03 08:30:48;;;;;;;;;;;22.30;43.40;;;;;;5064186;28;19924;-64
2023/01/03 08:33:17;;;;;;;;;;;22.30;43.40;;;;;;5059935;28;20028;-63
2023/01/03 08:35:47;;;;;;;;;;;22.30;43.40;;;;;;5059711;28;20011;-64
2023/01/03 08:38:16;;;;;;;;;;;22.30;43.30;;;;;;5058495;28;19973;-64
2023/01/03 08:40:45;;;;;;;;;;;22.30;43.30;;;;;;5062374;28;19925;-63
2023/01/03 08:43:12;;;;;;;;;;;22.30;43.40;;;;;;5056790;28;19928;-65
2023/01/03 08:45:39;;;;;;;;;;;22.30;43.40;;;;;;5058759;28;20291;-64
2023/01/03 08:48:08;;;;;;;;;;;22.40;43.40;;;;;;5061107;28;21932;-66
2023/01/03 08:50:36;;;;;;;;;;;22.40;43.40;;;;;;5060320;28;20349;-63
2023/01/03 08:53:04;;;;;;;;;;;22.40;43.40;;;;;;5060091;28;19935;-62
2023/01/03 08:55:32;;;;;;;;;;;22.50;43.40;;;;;;5058310;28;19921;-65
2023/01/03 08:57:59;;;;;;;;;;;22.50;43.30;;;;;;5058160;28;20015;-65
2023/01/03 09:00:26;;;;;;;;;;;22.50;43.30;;;;;;5060420;28;19959;-70
2023/01/03 09:02:56;;;;;;;;;;;22.50;43.30;;;;;;5060434;28;20023;-65
2023/01/03 09:05:24;;;;;;;;;;;22.60;43.30;;;;;;5057490;28;19935;-63
2023/01/03 09:07:52;;;;;;;;;;;22.60;43.20;;;;;;5060562;28;19940;-69
2023/01/03 09:10:20;;;;;;;;;;;22.60;43.20;;;;;;5044457;28;19971;-64
2023/01/03 09:12:47;;;;;;;;;;;22.60;43.10;;;;;;5059309;28;19920;-66
2023/01/03 09:15:14;;;;;;;;;;;22.60;43.00;;;;;;5059997;28;19929;-65
2023/01/03 09:17:43;;;;;;;;;;;22.70;43.00;;;;;;5040055;28;19927;-66
2023/01/03 09:20:11;;;;;;;;;;;22.70;43.00;;;;;;5060077;28;19960;-66
2023/01/03 09:22:38;;;;;;;;;;;22.70;42.90;;;;;;5059310;28;19920;-64
2023/01/03 09:25:05;;;;;;;;;;;22.70;42.80;;;;;;5060225;28;20027;-70
2023/01/03 09:27:32;;;;;;;;;;;22.80;43.00;;;;;;5058120;28;19928;-67
2023/01/03 09:30:00;;;;;;;;;;;22.80;43.40;;;;;;5062626;28;20385;-66
2023/01/03 09:32:27;;;;;;;;;;;22.90;43.70;;;;;;5060819;28;19920;-64
2023/01/03 09:34:53;;;;;;;;;;;23.00;43.60;;;;;;5044001;28;19920;-66
2023/01/03 09:37:20;;;;;;;;;;;23.00;43.40;;;;;;5058802;28;19920;-64
2023/01/03 09:39:47;;;;;;;;;;;23.00;43.20;;;;;;5060860;28;19928;-67
2023/01/03 09:45:05;;;;;;;;;;;23.10;42.80;;;;;;5060353;28;20341;-64
2023/01/03 09:47:35;;;;;;;;;;;23.20;42.60;;;;;;5057639;28;19951;-61
2023/01/03 09:50:02;;;;;;;;;;;23.20;42.60;;;;;;5059694;28;19928;-71
2023/01/03 10:04:37;;;;;;;;;;;23.40;42.30;;;;;;5062725;28;19932;-65
2023/01/03 10:07:15;;;;;;;;;;;23.40;42.40;;;;;;5060564;28;19928;-66
2023/01/03 10:09:50;;;;;;;;;;;23.40;42.00;;;;;;5043440;28;19975;-64
2023/01/03 10:12:37;;;;;;;;;;;23.40;42.10;;;;;;5066637;28;20011;-65
2023/01/03 10:15:24;;;;;;;;;;;23.40;41.90;;;;;;5047482;28;20011;-65
2023/01/03 10:18:12;;;;;;;;;;;23.50;41.90;;;;;;5058319;28;20043;-64
2023/01/03 10:20:47;;;;;;;;;;;23.40;41.70;;;;;;5059732;28;19927;-63
2023/01/03 10:23:15;;;;;;;;;;;23.50;41.60;;;;;;5061540;28;20400;-64
2023/01/03 10:25:44;;;;;;;;;;;23.60;41.70;;;;;;5060990;28;20011;-65
2023/01/03 10:28:20;;;;;;;;;;;23.60;41.50;;;;;;5057989;28;20237;-66
2023/01/03 10:31:07;;;;;;;;;;;23.60;41.50;;;;;;5061847;28;19932;-65
2023/01/03 10:33:40;;;;;;;;;;;23.60;41.30;;;;;;5044276;28;20007;-66
2023/01/03 10:36:08;;;;;;;;;;;23.60;41.40;;;;;;5059146;28;19924;-66
2023/01/03 10:38:35;;;;;;;;;;;23.70;41.40;;;;;;5057468;28;19924;-65
2023/01/03 10:41:19;;;;;;;;;;;23.60;41.40;;;;;;5056805;28;19928;-65
2023/01/03 10:43:57;;;;;;;;;;;23.70;41.30;;;;;;5059456;28;19924;-66
2023/01/03 10:46:26;;;;;;;;;;;23.70;41.30;;;;;;5057060;28;19971;-65
2023/01/03 10:48:55;;;;;;;;;;;23.70;41.20;;;;;;5061929;28;20449;-63
2023/01/03 10:51:53;;;;;;;;;;;23.70;41.20;;;;;;5063719;28;19935;-70
2023/01/03 10:54:27;;;;;;;;;;;23.70;41.20;;;;;;5062156;28;20285;-66
2023/01/03 10:56:54;;;;;;;;;;;23.70;41.20;;;;;;5058339;28;19931;-65
2023/01/03 10:59:29;;;;;;;;;;;23.70;41.20;;;;;;5059888;28;19978;-67
2023/01/03 11:02:16;;;;;;;;;;;23.70;41.20;;;;;;5058983;28;20015;-65
2023/01/03 11:04:43;;;;;;;;;;;23.70;41.30;;;;;;5062533;28;20380;-71
2023/01/03 11:07:12;;;;;;;;;;;23.70;41.20;;;;;;5060648;28;19929;-67
2023/01/03 11:09:48;;;;;;;;;;;23.70;41.30;;;;;;5064829;28;19958;-69
2023/01/03 11:12:37;;;;;;;;;;;23.70;41.30;;;;;;5061382;28;19935;-68
2023/01/03 11:15:15;;;;;;;;;;;23.70;41.40;;;;;;5061001;28;20420;-66
2023/01/03 11:17:53;;;;;;;;;;;23.70;41.30;;;;;;5059537;28;20011;-67
2023/01/03 11:20:21;;;;;;;;;;;23.70;41.30;;;;;;5048773;28;20005;-68
2023/01/03 11:22:54;;;;;;;;;;;23.70;41.30;;;;;;5064997;28;20034;-67
2023/01/03 11:25:41;;;;;;;;;;;23.70;41.20;;;;;;5065547;28;19943;-69
2023/01/03 11:28:28;;;;;;;;;;;23.70;41.20;;;;;;5064435;28;20425;-67
2023/01/03 11:31:04;;;;;;;;;;;23.80;41.10;;;;;;5065569;28;20015;-65
2023/01/03 11:33:42;;;;;;;;;;;23.70;40.20;;;;;;5063850;28;19920;-63
2023/01/03 11:36:14;;;;;;;;;;;23.60;36.70;;;;;;5063402;28;19920;-65
2023/01/03 11:38:49;;;;;;;;;;;23.30;37.20;;;;;;5062007;28;19921;-69
2023/01/03 11:41:26;;;;;;;;;;;23.00;39.00;;;;;;5062688;28;19932;-72
2023/01/03 11:44:07;;;;;;;;;;;22.90;39.50;;;;;;5062405;28;20043;-73
2023/01/03 11:46:54;;;;;;;;;;;22.90;39.90;;;;;;5062214;28;19928;-71
2023/01/03 11:49:32;;;;;;;;;;;23.00;40.40;;;;;;5062708;28;19963;-67
2023/01/03 11:52:14;;;;;;;;;;;23.00;40.70;;;;;;5063192;28;19929;-66
2023/01/03 11:54:50;;;;;;;;;;;23.10;40.90;;;;;;5058400;28;19928;-66
2023/01/03 11:57:26;;;;;;;;;;;23.10;40.90;;;;;;5062146;28;20288;-68
2023/01/03 11:59:57;;;;;;;;;;;23.20;41.10;;;;;;5060314;28;20402;-65
2023/01/03 12:02:34;;;;;;;;;;;23.20;41.10;;;;;;5063755;28;19924;-69
2023/01/03 12:05:13;;;;;;;;;;;23.30;41.20;;;;;;5061425;28;20045;-67
2023/01/03 12:07:59;;;;;;;;;;;23.30;41.20;;;;;;5061619;28;19928;-70
2023/01/03 12:10:46;;;;;;;;;;;23.30;41.10;;;;;;5062652;28;19952;-72
2023/01/03 12:13:32;;;;;;;;;;;23.40;41.20;;;;;;5050615;28;19920;-66
2023/01/03 12:16:03;;;;;;;;;;;23.40;41.30;;;;;;5060247;28;20007;-68
2023/01/03 12:18:40;;;;;;;;;;;23.50;41.40;;;;;;5047038;28;19943;-68
2023/01/03 12:21:13;;;;;;;;;;;23.50;41.50;;;;;;5060229;28;20399;-66
2023/01/03 12:23:47;;;;;;;;;;;23.50;41.50;;;;;;5063329;28;19935;-68
2023/01/03 12:26:16;;;;;;;;;;;23.50;41.50;;;;;;5060794;28;19928;-66
2023/01/03 12:29:03;;;;;;;;;;;23.60;41.50;;;;;;5062548;28;19985;-68
2023/01/03 12:31:34;;;;;;;;;;;23.60;41.50;;;;;;5060744;28;19935;-67
2023/01/03 12:34:18;;;;;;;;;;;23.60;41.50;;;;;;5063141;28;19927;-66
2023/01/03 12:37:05;;;;;;;;;;;23.60;41.50;;;;;;5059760;28;19924;-66
2023/01/03 12:39:45;;;;;;;;;;;23.60;41.50;;;;;;5052487;28;20280;-71
2023/01/03 12:42:32;;;;;;;;;;;23.60;41.40;;;;;;5062642;28;20014;-69
2023/01/03 12:45:19;;;;;;;;;;;23.60;41.40;;;;;;5043663;28;19931;-69
2023/01/03 12:47:53;;;;;;;;;;;23.60;41.40;;;;;;5056137;28;19928;-68
2023/01/03 12:50:29;;;;;;;;;;;23.60;41.30;;;;;;5062664;28;19956;-69
2023/01/03 12:52:59;;;;;;;;;;;23.60;41.30;;;;;;5042373;28;19967;-69
2023/01/03 12:55:37;;;;;;;;;;;23.60;41.30;;;;;;5058670;28;19924;-70
2023/01/03 12:58:24;;;;;;;;;;;23.70;41.20;;;;;;5060230;28;20015;-70
2023/01/03 13:00:59;;;;;;;;;;;23.60;41.10;;;;;;5044994;28;20345;-69
2023/01/03 13:03:46;;;;;;;;;;;23.60;41.10;;;;;;5061337;28;20462;-72
2023/01/03 13:06:17;;;;;;;;;;;23.70;41.20;;;;;;5059892;28;19928;-68
2023/01/03 13:08:50;;;;;;;;;;;23.60;41.20;;;;;;5060418;28;20292;-69
2023/01/03 13:11:21;;;;;;;;;;;23.60;41.20;;;;;;5057942;28;19939;-69
2023/01/03 13:13:52;;;;;;;;;;;23.70;41.20;;;;;;5059750;28;20347;-68
2023/01/03 13:16:39;;;;;;;;;;;23.60;41.10;;;;;;5060600;28;20287;-68
2023/01/03 13:19:26;;;;;;;;;;;23.70;41.10;;;;;;5061390;28;19981;-70
2023/01/03 13:22:12;;;;;;;;;;;23.60;41.00;;;;;;5042214;28;20019;-71
2023/01/03 13:24:42;;;;;;;;;;;23.70;41.10;;;;;;5061057;28;20022;-72
2023/01/03 13:27:24;;;;;;;;;;;23.70;41.10;;;;;;5045048;28;19977;-71
2023/01/03 13:30:09;;;;;;;;;;;23.60;41.10;;;;;;5059619;28;19943;-71
2023/01/03 13:32:47;;;;;;;;;;;23.60;41.10;;;;;;5051674;28;19940;-72
2023/01/03 13:35:19;;;;;;;;;;;23.70;41.10;;;;;;5059472;28;20283;-70
2023/01/03 13:41:30;;;;;;;;;;;23.60;41.10;;;;;;5053731;28;19965;-72
2023/01/03 13:44:05;;;;;;;;;;;23.60;41.10;;;;;;5057834;28;19927;-71
2023/01/03 13:46:33;;;;;;;;;;;23.60;41.10;;;;;;5058831;28;19998;-70
2023/01/03 13:49:03;;;;;;;;;;;23.60;41.10;;;;;;5051445;28;19929;-71
2023/01/03 13:51:45;;;;;;;;;;;23.60;41.10;;;;;;5057703;28;20173;-68
2023/01/03 13:54:32;;;;;;;;;;;23.60;41.10;;;;;;5060192;28;19924;-67
2023/01/03 13:57:02;;;;;;;;;;;23.60;41.00;;;;;;5044305;28;19995;-67
2023/01/03 13:59:41;;;;;;;;;;;23.60;40.90;;;;;;5053289;28;20429;-70
2023/01/03 14:02:28;;;;;;;;;;;23.60;40.90;;;;;;5057346;28;19928;-69
2023/01/03 14:05:17;;;;;;;;;;;23.60;40.90;;;;;;5045629;28;19920;-69
2023/01/03 14:08:00;;;;;;;;;;;23.60;40.90;;;;;;5045868;28;19920;-68
2023/01/03 14:10:39;;;;;;;;;;;23.50;40.80;;;;;;5059253;28;19928;-70
2023/01/03 14:13:15;;;;;;;;;;;23.50;41.00;;;;;;5058778;28;19932;-71
2023/01/03 14:15:43;;;;;;;;;;;23.50;41.00;;;;;;5058742;28;20033;-70
2023/01/03 14:18:19;;;;;;;;;;;23.50;41.00;;;;;;5059381;28;19990;-69
2023/01/03 14:20:48;;;;;;;;;;;23.40;41.00;;;;;;5058872;28;19928;-66
2023/01/03 14:23:16;;;;;;;;;;;23.40;41.00;;;;;;5058390;28;20015;-67
2023/01/03 14:26:14;;;;;;;;;;;23.40;41.00;;;;;;5058903;28;19931;-66
2023/01/03 14:28:45;;;;;;;;;;;23.40;41.10;;;;;;5041441;28;19924;-66
2023/01/03 14:31:17;;;;;;;;;;;23.40;41.10;;;;;;5058971;28;19927;-67
2023/01/03 14:33:58;;;;;;;;;;;23.40;41.20;;;;;;5060570;28;19970;-67
2023/01/03 14:36:26;;;;;;;;;;;23.40;41.20;;;;;;5057534;28;19936;-68
2023/01/03 14:38:55;;;;;;;;;;;23.40;41.20;;;;;;5056156;28;19976;-67
2023/01/03 14:41:28;;;;;;;;;;;23.40;41.20;;;;;;5058501;28;19998;-67
2023/01/03 14:44:01;;;;;;;;;;;23.40;41.50;;;;;;5055880;28;19948;-70
2023/01/03 14:46:28;;;;;;;;;;;23.30;41.20;;;;;;5048053;28;19920;-65
2023/01/03 14:49:00;;;;;;;;;;;23.30;41.20;;;;;;5057719;28;20003;-70
2023/01/03 14:51:34;;;;;;;;;;;23.30;41.20;;;;;;5043399;28;20054;-68
2023/01/03 14:54:02;;;;;;;;;;;23.30;41.30;;;;;;5056095;28;20329;-70
2023/01/03 14:56:30;;;;;;;;;;;23.30;41.30;;;;;;5052505;28;19951;-70
2023/01/03 14:58:57;;;;;;;;;;;23.30;41.30;;;;;;5058942;28;20376;-71
2023/01/03 15:01:25;;;;;;;;;;;23.30;41.30;;;;;;5058849;28;19990;-70
2023/01/03 15:03:54;;;;;;;;;;;23.20;41.30;;;;;;5058735;28;20632;-69
2023/01/03 15:06:25;;;;;;;;;;;23.20;41.40;;;;;;5058857;28;19970;-69
2023/01/03 15:08:54;;;;;;;;;;;23.20;42.20;;;;;;5059089;28;20036;-69
2023/01/03 15:11:25;;;;;;;;;;;23.20;41.70;;;;;;5058813;28;20031;-69
2023/01/03 15:13:56;;;;;;;;;;;23.20;41.70;;;;;;5059354;28;19942;-66
2023/01/03 15:16:40;;;;;;;;;;;23.20;41.80;;;;;;5058788;28;20056;-66
2023/01/03 15:19:18;;;;;;;;;;;23.10;41.80;;;;;;5039873;28;20018;-72
2023/01/03 15:21:46;;;;;;;;;;;23.10;42.00;;;;;;5059403;28;19935;-68
2023/01/03 15:24:18;;;;;;;;;;;23.10;42.00;;;;;;5057293;28;20019;-69
2023/01/03 15:26:46;;;;;;;;;;;23.00;42.10;;;;;;5057824;28;20933;-71
2023/01/03 15:29:22;;;;;;;;;;;23.00;42.30;;;;;;5056939;28;20020;-75
2023/01/03 15:31:56;;;;;;;;;;;23.00;42.50;;;;;;5059984;28;19925;-70
2023/01/03 15:34:37;;;;;;;;;;;23.00;42.70;;;;;;5060995;28;19924;-66
2023/01/03 15:37:13;;;;;;;;;;;22.90;42.90;;;;;;5067264;28;20026;-71
2023/01/03 15:39:45;;;;;;;;;;;22.90;42.90;;;;;;5068928;28;19920;-70
2023/01/03 15:45:18;;;;;;;;;;;22.80;43.00;;;;;;5063335;28;19927;-70
2023/01/03 15:47:46;;;;;;;;;;;22.90;43.20;;;;;;5069411;28;20032;-70
2023/01/03 15:50:14;;;;;;;;;;;22.70;43.70;;;;;;5067263;28;19960;-70
2023/01/03 15:52:41;;;;;;;;;;;22.70;43.30;;;;;;5071934;28;19955;-70
2023/01/03 15:55:11;;;;;;;;;;;22.70;43.40;;;;;;5075588;28;19924;-70